sensor_id;sensor_type;location;lat;lon;timestamp;pressure;altitude;pressure_sealevel;temperature;humidity
60015;BME280;45867;52.480;6.056;2023-11-19T00:01:16;99646.50;;;12.20;100.00
60015;BME280;45867;52.480;6.056;2023-11-19T00:03:43;99617.91;;;12.17;100.00
60015;BME280;45867;52.480;6.056;2023-11-19T00:06:14;99615.91;;;12.23;100.00
60015;BME280;45867;52.480;6.056;2023-11-19T00:08:40;99621.13;;;12.14;100.00
60015;BME280;45867;52.480;6.056;2023-11-19T00:11:07;99597.97;;;12.06;100.00
60015;BME280;45867;52.480;6.056;2023-11-19T00:13:33;99619.75;;;12.16;100.00
60015;BME280;45867;52.480;6.056;2023-11-19T00:16:06;99606.91;;;12.10;100.00
60015;BME280;45867;52.480;6.056;2023-11-19T00:18:42;99623.53;;;12.24;100.00
60015;BME280;45867;52.480;6.056;2023-11-19T00:21:12;99604.78;;;12.20;100.00
60015;BME280;45867;52.480;6.056;2023-11-19T00:26:32;99597.25;;;12.14;100.00
60015;BME280;45867;52.480;6.056;2023-11-19T00:28:59;99581.91;;;12.11;100.00
60015;BME280;45867;52.480;6.056;2023-11-19T00:31:26;99609.00;;;12.21;100.00
60015;BME280;45867;52.480;6.056;2023-11-19T00:33:58;99597.59;;;12.21;100.00
60015;BME280;45867;52.480;6.056;2023-11-19T00:39:12;99580.38;;;12.10;100.00
60015;BME280;45867;52.480;6.056;2023-11-19T00:41:40;99580.25;;;12.15;100.00
60015;BME280;45867;52.480;6.056;2023-11-19T00:44:11;99551.16;;;12.10;100.00
60015;BME280;45867;52.480;6.056;2023-11-19T00:46:41;99542.66;;;11.90;100.00
60015;BME280;45867;52.480;6.056;2023-11-19T00:49:14;99572.25;;;12.06;100.00
60015;BME280;45867;52.480;6.056;2023-11-19T00:51:41;99574.94;;;12.15;100.00
60015;BME280;45867;52.480;6.056;2023-11-19T00:54:07;99549.25;;;12.02;100.00
60015;BME280;45867;52.480;6.056;2023-11-19T00:56:38;99548.91;;;11.94;100.00
60015;BME280;45867;52.480;6.056;2023-11-19T00:59:07;99550.19;;;12.06;100.00
60015;BME280;45867;52.480;6.056;2023-11-19T01:01:44;99541.88;;;11.90;100.00
60015;BME280;45867;52.480;6.056;2023-11-19T01:04:10;99564.53;;;11.96;100.00
60015;BME280;45867;52.480;6.056;2023-11-19T01:06:40;99578.75;;;12.00;100.00
60015;BME280;45867;52.480;6.056;2023-11-19T01:09:17;99564.97;;;11.89;100.00
60015;BME280;45867;52.480;6.056;2023-11-19T01:11:44;99574.69;;;12.03;100.00
60015;BME280;45867;52.480;6.056;2023-11-19T01:14:10;99588.31;;;12.01;100.00
60015;BME280;45867;52.480;6.056;2023-11-19T01:16:43;99571.28;;;12.02;100.00
60015;BME280;45867;52.480;6.056;2023-11-19T01:19:32;99594.78;;;12.17;100.00
60015;BME280;45867;52.480;6.056;2023-11-19T01:21:59;99599.25;;;12.08;100.00
60015;BME280;45867;52.480;6.056;2023-11-19T01:24:34;99565.88;;;11.85;100.00
60015;BME280;45867;52.480;6.056;2023-11-19T01:27:00;99594.84;;;11.95;100.00
60015;BME280;45867;52.480;6.056;2023-11-19T01:29:27;99591.72;;;12.02;100.00
60015;BME280;45867;52.480;6.056;2023-11-19T01:31:53;99575.63;;;11.98;100.00
60015;BME280;45867;52.480;6.056;2023-11-19T01:34:24;99583.38;;;12.17;100.00
60015;BME280;45867;52.480;6.056;2023-11-19T01:36:51;99555.34;;;12.02;100.00
60015;BME280;45867;52.480;6.056;2023-11-19T01:39:17;99561.50;;;12.11;100.00
60015;BME280;45867;52.480;6.056;2023-11-19T01:41:44;99551.44;;;12.08;100.00
60015;BME280;45867;52.480;6.056;2023-11-19T01:44:15;99553.66;;;12.06;100.00
60015;BME280;45867;52.480;6.056;2023-11-19T01:46:46;99542.94;;;11.89;100.00
60015;BME280;45867;52.480;6.056;2023-11-19T01:49:18;99558.50;;;12.13;100.00
60015;BME280;45867;52.480;6.056;2023-11-19T01:51:46;99546.84;;;11.91;100.00
60015;BME280;45867;52.480;6.056;2023-11-19T01:54:18;99572.84;;;12.03;100.00
60015;BME280;45867;52.480;6.056;2023-11-19T01:56:45;99535.75;;;11.89;100.00
60015;BME280;45867;52.480;6.056;2023-11-19T01:59:13;99575.34;;;12.08;100.00
60015;BME280;45867;52.480;6.056;2023-11-19T02:01:41;99563.44;;;11.97;100.00
60015;BME280;45867;52.480;6.056;2023-11-19T02:04:09;99567.84;;;12.02;100.00
60015;BME280;45867;52.480;6.056;2023-11-19T02:06:43;99550.44;;;11.87;100.00
60015;BME280;45867;52.480;6.056;2023-11-19T02:09:12;99573.53;;;11.86;100.00
60015;BME280;45867;52.480;6.056;2023-11-19T02:11:42;99562.63;;;11.88;100.00
60015;BME280;45867;52.480;6.056;2023-11-19T02:14:08;99586.38;;;11.93;100.00
60015;BME280;45867;52.480;6.056;2023-11-19T02:16:43;99608.59;;;12.06;100.00
60015;BME280;45867;52.480;6.056;2023-11-19T02:19:13;99562.69;;;11.74;100.00
60015;BME280;45867;52.480;6.056;2023-11-19T02:21:47;99580.03;;;11.80;100.00
60015;BME280;45867;52.480;6.056;2023-11-19T02:24:20;99602.66;;;12.00;100.00
60015;BME280;45867;52.480;6.056;2023-11-19T02:27:02;99593.88;;;11.91;100.00
60015;BME280;45867;52.480;6.056;2023-11-19T02:29:32;99584.72;;;11.83;100.00
60015;BME280;45867;52.480;6.056;2023-11-19T02:31:58;99621.22;;;12.00;100.00
60015;BME280;45867;52.480;6.056;2023-11-19T02:34:30;99600.16;;;11.95;100.00
60015;BME280;45867;52.480;6.056;2023-11-19T02:36:57;99592.50;;;12.02;100.00
60015;BME280;45867;52.480;6.056;2023-11-19T02:39:23;99617.81;;;11.99;100.00
60015;BME280;45867;52.480;6.056;2023-11-19T02:41:53;99622.16;;;11.95;100.00
60015;BME280;45867;52.480;6.056;2023-11-19T02:44:20;99601.84;;;11.91;100.00
60015;BME280;45867;52.480;6.056;2023-11-19T02:46:46;99628.47;;;12.08;100.00
60015;BME280;45867;52.480;6.056;2023-11-19T02:49:13;99645.50;;;12.07;100.00
60015;BME280;45867;52.480;6.056;2023-11-19T02:51:44;99624.22;;;11.76;100.00
60015;BME280;45867;52.480;6.056;2023-11-19T02:54:11;99665.53;;;11.91;100.00
60015;BME280;45867;52.480;6.056;2023-11-19T02:56:37;99666.16;;;11.88;100.00
60015;BME280;45867;52.480;6.056;2023-11-19T02:59:04;99656.88;;;11.85;100.00
60015;BME280;45867;52.480;6.056;2023-11-19T03:01:33;99656.88;;;11.85;100.00
60015;BME280;45867;52.480;6.056;2023-11-19T03:04:00;99669.50;;;11.80;100.00
60015;BME280;45867;52.480;6.056;2023-11-19T03:06:36;99673.63;;;11.86;100.00
60015;BME280;45867;52.480;6.056;2023-11-19T03:09:05;99658.84;;;11.71;100.00
60015;BME280;45867;52.480;6.056;2023-11-19T03:11:35;99679.50;;;11.83;100.00
60015;BME280;45867;52.480;6.056;2023-11-19T03:14:12;99673.63;;;11.86;100.00
60015;BME280;45867;52.480;6.056;2023-11-19T03:16:45;99670.84;;;11.68;100.00
60015;BME280;45867;52.480;6.056;2023-11-19T03:19:11;99692.91;;;11.77;100.00
60015;BME280;45867;52.480;6.056;2023-11-19T03:21:51;99697.22;;;11.87;100.00
60015;BME280;45867;52.480;6.056;2023-11-19T03:24:17;99701.44;;;11.88;100.00
60015;BME280;45867;52.480;6.056;2023-11-19T03:26:48;99716.97;;;11.95;100.00
60015;BME280;45867;52.480;6.056;2023-11-19T03:29:18;99721.69;;;11.84;100.00
60015;BME280;45867;52.480;6.056;2023-11-19T03:31:47;99732.19;;;11.89;100.00
60015;BME280;45867;52.480;6.056;2023-11-19T03:34:14;99724.75;;;11.77;100.00
60015;BME280;45867;52.480;6.056;2023-11-19T03:36:48;99699.97;;;11.60;100.00
60015;BME280;45867;52.480;6.056;2023-11-19T03:39:17;99725.78;;;11.68;100.00
60015;BME280;45867;52.480;6.056;2023-11-19T03:41:45;99744.75;;;11.61;100.00
60015;BME280;45867;52.480;6.056;2023-11-19T03:44:12;99738.94;;;11.59;100.00
60015;BME280;45867;52.480;6.056;2023-11-19T03:46:41;99726.03;;;11.44;100.00
60015;BME280;45867;52.480;6.056;2023-11-19T03:49:08;99745.66;;;11.43;100.00
60015;BME280;45867;52.480;6.056;2023-11-19T03:51:37;99728.91;;;11.33;100.00
60015;BME280;45867;52.480;6.056;2023-11-19T03:54:14;99723.78;;;11.37;100.00
60015;BME280;45867;52.480;6.056;2023-11-19T03:56:40;99720.53;;;11.26;100.00
60015;BME280;45867;52.480;6.056;2023-11-19T03:59:07;99732.03;;;11.36;100.00
60015;BME280;45867;52.480;6.056;2023-11-19T04:01:33;99723.88;;;11.32;100.00
60015;BME280;45867;52.480;6.056;2023-11-19T04:04:02;99707.22;;;11.18;100.00
60015;BME280;45867;52.480;6.056;2023-11-19T04:06:34;99734.13;;;11.25;100.00
60015;BME280;45867;52.480;6.056;2023-11-19T04:09:01;99713.53;;;11.08;100.00
60015;BME280;45867;52.480;6.056;2023-11-19T04:11:38;99720.00;;;11.02;100.00
60015;BME280;45867;52.480;6.056;2023-11-19T04:14:13;99742.19;;;11.20;100.00
60015;BME280;45867;52.480;6.056;2023-11-19T04:16:41;99743.66;;;11.12;100.00
60015;BME280;45867;52.480;6.056;2023-11-19T04:19:07;99714.50;;;10.98;100.00
60015;BME280;45867;52.480;6.056;2023-11-19T04:21:34;99722.06;;;11.05;100.00
60015;BME280;45867;52.480;6.056;2023-11-19T04:24:00;99724.22;;;11.03;100.00
60015;BME280;45867;52.480;6.056;2023-11-19T04:26:29;99750.13;;;11.20;100.00
60015;BME280;45867;52.480;6.056;2023-11-19T04:28:56;99752.88;;;11.15;100.00
60015;BME280;45867;52.480;6.056;2023-11-19T04:31:22;99765.16;;;11.10;100.00
60015;BME280;45867;52.480;6.056;2023-11-19T04:33:49;99767.91;;;11.05;100.00
60015;BME280;45867;52.480;6.056;2023-11-19T04:36:18;99776.66;;;11.06;100.00
60015;BME280;45867;52.480;6.056;2023-11-19T04:38:45;99763.91;;;10.94;100.00
60015;BME280;45867;52.480;6.056;2023-11-19T04:41:12;99777.03;;;10.99;100.00
60015;BME280;45867;52.480;6.056;2023-11-19T04:43:38;99778.53;;;10.92;100.00
60015;BME280;45867;52.480;6.056;2023-11-19T04:46:13;99786.94;;;10.94;100.00
60015;BME280;45867;52.480;6.056;2023-11-19T04:48:42;99785.88;;;10.95;100.00
60015;BME280;45867;52.480;6.056;2023-11-19T04:51:08;99816.63;;;11.09;100.00
60015;BME280;45867;52.480;6.056;2023-11-19T04:53:38;99797.06;;;10.92;100.00
60015;BME280;45867;52.480;6.056;2023-11-19T04:56:14;99812.59;;;11.12;100.00
60015;BME280;45867;52.480;6.056;2023-11-19T04:58:43;99806.69;;;11.15;100.00
60015;BME280;45867;52.480;6.056;2023-11-19T05:01:15;99798.06;;;11.09;100.00
60015;BME280;45867;52.480;6.056;2023-11-19T05:03:44;99792.06;;;11.04;100.00
60015;BME280;45867;52.480;6.056;2023-11-19T05:06:11;99814.47;;;11.11;100.00
60015;BME280;45867;52.480;6.056;2023-11-19T05:08:38;99828.81;;;11.10;100.00
60015;BME280;45867;52.480;6.056;2023-11-19T05:11:05;99815.22;;;10.98;100.00
60015;BME280;45867;52.480;6.056;2023-11-19T05:13:31;99831.31;;;11.02;100.00
60015;BME280;45867;52.480;6.056;2023-11-19T05:16:01;99821.03;;;11.00;100.00
60015;BME280;45867;52.480;6.056;2023-11-19T05:18:27;99820.34;;;11.08;100.00
60015;BME280;45867;52.480;6.056;2023-11-19T05:20:54;99830.47;;;11.06;100.00
60015;BME280;45867;52.480;6.056;2023-11-19T05:23:20;99841.03;;;10.93;100.00
60015;BME280;45867;52.480;6.056;2023-11-19T05:25:47;99828.84;;;10.78;100.00
60015;BME280;45867;52.480;6.056;2023-11-19T05:28:13;99846.75;;;10.86;100.00
60015;BME280;45867;52.480;6.056;2023-11-19T05:30:40;99857.50;;;10.76;100.00
60015;BME280;45867;52.480;6.056;2023-11-19T05:33:07;99842.44;;;10.57;100.00
60015;BME280;45867;52.480;6.056;2023-11-19T05:35:34;99848.22;;;10.59;100.00
60015;BME280;45867;52.480;6.056;2023-11-19T05:38:01;99870.56;;;10.72;100.00
60015;BME280;45867;52.480;6.056;2023-11-19T05:40:27;99864.38;;;10.77;100.00
60015;BME280;45867;52.480;6.056;2023-11-19T05:42:53;99855.88;;;10.61;100.00
60015;BME280;45867;52.480;6.056;2023-11-19T05:45:20;99858.16;;;10.68;100.00
60015;BME280;45867;52.480;6.056;2023-11-19T05:47:49;99888.13;;;10.82;100.00
60015;BME280;45867;52.480;6.056;2023-11-19T05:50:16;99846.16;;;10.56;100.00
60015;BME280;45867;52.480;6.056;2023-11-19T05:52:43;99884.19;;;10.79;100.00
60015;BME280;45867;52.480;6.056;2023-11-19T05:55:12;99854.88;;;10.57;100.00
60015;BME280;45867;52.480;6.056;2023-11-19T05:57:41;99897.13;;;10.67;100.00
60015;BME280;45867;52.480;6.056;2023-11-19T06:00:11;99880.94;;;10.50;100.00
60015;BME280;45867;52.480;6.056;2023-11-19T06:02:41;99903.72;;;10.70;100.00
60015;BME280;45867;52.480;6.056;2023-11-19T06:05:07;99896.03;;;10.68;100.00
60015;BME280;45867;52.480;6.056;2023-11-19T06:07:35;99892.41;;;10.64;100.00
60015;BME280;45867;52.480;6.056;2023-11-19T06:10:02;99901.25;;;10.73;100.00
60015;BME280;45867;52.480;6.056;2023-11-19T06:12:29;99874.81;;;10.54;100.00
60015;BME280;45867;52.480;6.056;2023-11-19T06:14:55;99913.22;;;10.71;100.00
60015;BME280;45867;52.480;6.056;2023-11-19T06:17:22;99883.03;;;10.53;100.00
60015;BME280;45867;52.480;6.056;2023-11-19T06:19:48;99891.13;;;10.61;100.00
60015;BME280;45867;52.480;6.056;2023-11-19T06:22:15;99906.91;;;10.66;100.00
60015;BME280;45867;52.480;6.056;2023-11-19T06:24:42;99923.03;;;10.70;100.00
60015;BME280;45867;52.480;6.056;2023-11-19T06:27:08;99926.47;;;10.71;100.00
60015;BME280;45867;52.480;6.056;2023-11-19T06:29:38;99932.91;;;10.83;100.00
60015;BME280;45867;52.480;6.056;2023-11-19T06:32:10;99944.75;;;10.72;100.00
60015;BME280;45867;52.480;6.056;2023-11-19T06:34:42;99972.59;;;10.70;100.00
60015;BME280;45867;52.480;6.056;2023-11-19T06:37:10;99944.59;;;10.63;100.00
60015;BME280;45867;52.480;6.056;2023-11-19T06:39:37;99960.22;;;10.65;100.00
60015;BME280;45867;52.480;6.056;2023-11-19T06:42:04;99956.72;;;10.51;100.00
60015;BME280;45867;52.480;6.056;2023-11-19T06:44:30;99986.34;;;10.72;100.00
60015;BME280;45867;52.480;6.056;2023-11-19T06:46:57;99981.69;;;10.63;100.00
60015;BME280;45867;52.480;6.056;2023-11-19T06:49:24;99986.00;;;10.59;100.00
60015;BME280;45867;52.480;6.056;2023-11-19T06:51:50;100009.97;;;10.68;100.00
60015;BME280;45867;52.480;6.056;2023-11-19T06:54:17;100012.63;;;10.68;100.00
60015;BME280;45867;52.480;6.056;2023-11-19T06:56:43;100005.31;;;10.60;100.00
60015;BME280;45867;52.480;6.056;2023-11-19T06:59:12;100022.56;;;10.57;100.00
60015;BME280;45867;52.480;6.056;2023-11-19T07:01:41;100005.59;;;10.39;100.00
60015;BME280;45867;52.480;6.056;2023-11-19T07:04:11;100013.31;;;10.36;100.00
60015;BME280;45867;52.480;6.056;2023-11-19T07:06:41;100030.78;;;10.37;100.00
60015;BME280;45867;52.480;6.056;2023-11-19T07:09:09;100027.41;;;10.31;100.00
60015;BME280;45867;52.480;6.056;2023-11-19T07:11:50;100055.94;;;10.39;100.00
60015;BME280;45867;52.480;6.056;2023-11-19T07:14:23;100067.00;;;10.41;100.00
60015;BME280;45867;52.480;6.056;2023-11-19T07:16:52;100051.69;;;10.38;100.00
60015;BME280;45867;52.480;6.056;2023-11-19T07:19:28;100062.16;;;10.49;100.00
60015;BME280;45867;52.480;6.056;2023-11-19T07:22:07;100092.34;;;10.72;100.00
60015;BME280;45867;52.480;6.056;2023-11-19T07:24:36;100093.03;;;10.58;100.00
60015;BME280;45867;52.480;6.056;2023-11-19T07:27:10;100110.66;;;10.68;100.00
60015;BME280;45867;52.480;6.056;2023-11-19T07:29:51;100093.09;;;10.53;100.00
60015;BME280;45867;52.480;6.056;2023-11-19T07:32:18;100135.28;;;10.69;100.00
60015;BME280;45867;52.480;6.056;2023-11-19T07:34:48;100113.69;;;10.61;100.00
60015;BME280;45867;52.480;6.056;2023-11-19T07:37:14;100124.66;;;10.50;100.00
60015;BME280;45867;52.480;6.056;2023-11-19T07:39:43;100106.69;;;10.47;100.00
60015;BME280;45867;52.480;6.056;2023-11-19T07:42:10;100123.81;;;10.54;100.00
60015;BME280;45867;52.480;6.056;2023-11-19T07:44:45;100121.16;;;10.54;100.00
60015;BME280;45867;52.480;6.056;2023-11-19T07:47:12;100142.91;;;10.75;100.00
60015;BME280;45867;52.480;6.056;2023-11-19T07:49:44;100151.34;;;10.77;100.00
60015;BME280;45867;52.480;6.056;2023-11-19T07:52:11;100131.81;;;10.49;100.00
60015;BME280;45867;52.480;6.056;2023-11-19T07:54:47;100159.44;;;10.67;100.00
60015;BME280;45867;52.480;6.056;2023-11-19T07:57:19;100145.16;;;10.63;100.00
60015;BME280;45867;52.480;6.056;2023-11-19T07:59:46;100174.72;;;10.75;100.00
60015;BME280;45867;52.480;6.056;2023-11-19T08:02:16;100145.22;;;10.58;100.00
60015;BME280;45867;52.480;6.056;2023-11-19T08:04:42;100169.69;;;10.74;100.00
60015;BME280;45867;52.480;6.056;2023-11-19T08:07:25;100155.19;;;10.66;100.00
60015;BME280;45867;52.480;6.056;2023-11-19T08:09:52;100132.28;;;10.56;100.00
60015;BME280;45867;52.480;6.056;2023-11-19T08:12:21;100177.53;;;10.84;100.00
60015;BME280;45867;52.480;6.056;2023-11-19T08:14:49;100150.97;;;10.65;100.00
60015;BME280;45867;52.480;6.056;2023-11-19T08:17:24;100138.88;;;10.59;100.00
60015;BME280;45867;52.480;6.056;2023-11-19T08:20:14;100195.00;;;10.85;100.00
60015;BME280;45867;52.480;6.056;2023-11-19T08:22:46;100139.59;;;10.64;100.00
60015;BME280;45867;52.480;6.056;2023-11-19T08:25:16;100132.94;;;10.67;100.00
60015;BME280;45867;52.480;6.056;2023-11-19T08:27:43;100172.28;;;10.79;100.00
60015;BME280;45867;52.480;6.056;2023-11-19T08:30:15;100144.50;;;10.76;100.00
60015;BME280;45867;52.480;6.056;2023-11-19T08:32:48;100174.81;;;10.89;100.00
60015;BME280;45867;52.480;6.056;2023-11-19T08:35:23;100187.50;;;10.92;100.00
60015;BME280;45867;52.480;6.056;2023-11-19T08:37:51;100185.19;;;10.85;100.00
60015;BME280;45867;52.480;6.056;2023-11-19T08:40:18;100182.09;;;10.78;100.00
60015;BME280;45867;52.480;6.056;2023-11-19T08:42:44;100190.09;;;10.73;100.00
60015;BME280;45867;52.480;6.056;2023-11-19T08:45:11;100180.50;;;10.77;100.00
60015;BME280;45867;52.480;6.056;2023-11-19T08:47:37;100175.56;;;10.71;100.00
60015;BME280;45867;52.480;6.056;2023-11-19T08:50:11;100175.91;;;10.64;100.00
60015;BME280;45867;52.480;6.056;2023-11-19T08:52:41;100218.34;;;10.83;100.00
60015;BME280;45867;52.480;6.056;2023-11-19T08:55:21;100206.97;;;10.82;100.00
60015;BME280;45867;52.480;6.056;2023-11-19T08:57:49;100190.31;;;10.77;100.00
60015;BME280;45867;52.480;6.056;2023-11-19T09:00:16;100209.34;;;10.84;100.00
60015;BME280;45867;52.480;6.056;2023-11-19T09:02:45;100215.94;;;10.86;100.00
60015;BME280;45867;52.480;6.056;2023-11-19T09:05:13;100248.00;;;11.09;100.00
60015;BME280;45867;52.480;6.056;2023-11-19T09:07:49;100241.81;;;10.95;100.00
60015;BME280;45867;52.480;6.056;2023-11-19T09:10:15;100245.41;;;11.04;100.00
60015;BME280;45867;52.480;6.056;2023-11-19T09:12:43;100252.81;;;11.07;100.00
60015;BME280;45867;52.480;6.056;2023-11-19T09:15:18;100255.47;;;11.07;100.00
60015;BME280;45867;52.480;6.056;2023-11-19T09:17:47;100294.16;;;11.32;100.00
60015;BME280;45867;52.480;6.056;2023-11-19T09:20:16;100286.38;;;11.41;100.00
60015;BME280;45867;52.480;6.056;2023-11-19T09:22:53;100280.63;;;11.33;100.00
60015;BME280;45867;52.480;6.056;2023-11-19T09:25:28;100283.78;;;11.36;100.00
60015;BME280;45867;52.480;6.056;2023-11-19T09:28:10;100282.75;;;11.31;100.00
60015;BME280;45867;52.480;6.056;2023-11-19T09:30:37;100294.03;;;11.42;100.00
60015;BME280;45867;52.480;6.056;2023-11-19T09:33:52;100312.84;;;11.46;100.00
60015;BME280;45867;52.480;6.056;2023-11-19T09:36:08;100306.66;;;11.50;100.00
60015;BME280;45867;52.480;6.056;2023-11-19T09:38:37;100305.81;;;11.55;100.00
60015;BME280;45867;52.480;6.056;2023-11-19T09:41:12;100296.91;;;11.65;100.00
60015;BME280;45867;52.480;6.056;2023-11-19T09:43:42;100315.34;;;11.99;100.00
60015;BME280;45867;52.480;6.056;2023-11-19T09:46:13;100342.97;;;12.17;100.00
60015;BME280;45867;52.480;6.056;2023-11-19T09:48:42;100366.66;;;12.32;100.00
60015;BME280;45867;52.480;6.056;2023-11-19T09:51:12;100388.13;;;12.17;100.00
60015;BME280;45867;52.480;6.056;2023-11-19T09:53:42;100374.66;;;11.89;100.00
60015;BME280;45867;52.480;6.056;2023-11-19T09:56:08;100391.63;;;11.93;100.00
60015;BME280;45867;52.480;6.056;2023-11-19T09:58:40;100424.94;;;12.05;100.00
60015;BME280;45867;52.480;6.056;2023-11-19T10:01:07;100440.25;;;12.13;100.00
60015;BME280;45867;52.480;6.056;2023-11-19T10:03:37;100467.66;;;12.08;100.00
60015;BME280;45867;52.480;6.056;2023-11-19T10:06:07;100470.31;;;11.84;100.00
60015;BME280;45867;52.480;6.056;2023-11-19T10:08:37;100441.25;;;11.45;100.00
60015;BME280;45867;52.480;6.056;2023-11-19T10:11:04;100396.53;;;11.33;100.00
60015;BME280;45867;52.480;6.056;2023-11-19T10:13:31;100341.00;;;11.18;100.00
60015;BME280;45867;52.480;6.056;2023-11-19T10:15:58;100336.41;;;11.23;100.00
60015;BME280;45867;52.480;6.056;2023-11-19T10:18:26;100296.25;;;11.11;100.00
60015;BME280;45867;52.480;6.056;2023-11-19T10:20:58;100274.69;;;11.18;100.00
60015;BME280;45867;52.480;6.056;2023-11-19T10:23:27;100277.97;;;11.33;100.00
60015;BME280;45867;52.480;6.056;2023-11-19T10:25:53;100263.19;;;11.27;100.00
60015;BME280;45867;52.480;6.056;2023-11-19T10:28:26;100229.03;;;11.21;100.00
60015;BME280;45867;52.480;6.056;2023-11-19T10:30:56;100252.81;;;11.50;100.00
60015;BME280;45867;52.480;6.056;2023-11-19T10:33:29;100237.19;;;11.29;100.00
60015;BME280;45867;52.480;6.056;2023-11-19T10:35:59;100265.81;;;11.51;100.00
60015;BME280;45867;52.480;6.056;2023-11-19T10:38:30;100296.00;;;11.74;100.00
60015;BME280;45867;52.480;6.056;2023-11-19T10:40:57;100313.94;;;11.83;100.00
60015;BME280;45867;52.480;6.056;2023-11-19T10:43:24;100352.38;;;11.90;100.00
60015;BME280;45867;52.480;6.056;2023-11-19T10:45:51;100355.63;;;11.82;100.00
60015;BME280;45867;52.480;6.056;2023-11-19T10:48:18;100400.44;;;11.89;100.00
60015;BME280;45867;52.480;6.056;2023-11-19T10:50:49;100373.97;;;11.60;100.00
60015;BME280;45867;52.480;6.056;2023-11-19T10:53:19;100408.72;;;11.87;100.00
60015;BME280;45867;52.480;6.056;2023-11-19T10:55:47;100397.31;;;11.87;100.00
60015;BME280;45867;52.480;6.056;2023-11-19T10:58:15;100401.72;;;11.91;100.00
60015;BME280;45867;52.480;6.056;2023-11-19T11:00:49;100409.25;;;11.84;100.00
60015;BME280;45867;52.480;6.056;2023-11-19T11:03:19;100375.13;;;11.72;100.00
60015;BME280;45867;52.480;6.056;2023-11-19T11:05:48;100400.19;;;11.85;100.00
60015;BME280;45867;52.480;6.056;2023-11-19T11:08:15;100406.31;;;11.86;100.00
60015;BME280;45867;52.480;6.056;2023-11-19T11:13:19;100379.66;;;11.72;100.00
60015;BME280;45867;52.480;6.056;2023-11-19T11:15:45;100339.97;;;11.62;100.00
60015;BME280;45867;52.480;6.056;2023-11-19T11:18:22;100295.41;;;11.59;100.00
60015;BME280;45867;52.480;6.056;2023-11-19T11:20:49;100246.72;;;11.49;100.00
60015;BME280;45867;52.480;6.056;2023-11-19T11:26:23;100240.69;;;11.44;100.00
60015;BME280;45867;52.480;6.056;2023-11-19T11:29:14;100206.75;;;11.22;100.00
60015;BME280;45867;52.480;6.056;2023-11-19T11:37:23;100163.66;;;10.92;100.00
60015;BME280;45867;52.480;6.056;2023-11-19T11:39:52;100139.91;;;10.82;100.00
60015;BME280;45867;52.480;6.056;2023-11-19T11:45:11;100103.06;;;10.61;100.00
60015;BME280;45867;52.480;6.056;2023-11-19T11:48:08;100059.50;;;10.49;100.00
60015;BME280;45867;52.480;6.056;2023-11-19T11:50:51;100037.13;;;10.60;100.00
60015;BME280;45867;52.480;6.056;2023-11-19T11:53:19;100009.97;;;10.49;100.00
60015;BME280;45867;52.480;6.056;2023-11-19T11:55:56;99995.16;;;10.67;100.00
60015;BME280;45867;52.480;6.056;2023-11-19T11:58:29;100002.81;;;10.87;100.00
60015;BME280;45867;52.480;6.056;2023-11-19T12:00:57;100020.06;;;11.04;100.00
60015;BME280;45867;52.480;6.056;2023-11-19T12:03:27;100010.88;;;10.96;100.00
60015;BME280;45867;52.480;6.056;2023-11-19T12:05:54;99997.81;;;10.86;100.00
60015;BME280;45867;52.480;6.056;2023-11-19T12:08:25;100014.13;;;10.93;100.00
60015;BME280;45867;52.480;6.056;2023-11-19T12:11:01;100004.16;;;10.85;100.00
60015;BME280;45867;52.480;6.056;2023-11-19T12:13:49;100046.94;;;11.16;100.00
60015;BME280;45867;52.480;6.056;2023-11-19T12:16:24;100017.78;;;10.97;100.00
60015;BME280;45867;52.480;6.056;2023-11-19T12:18:52;100030.53;;;11.14;100.00
60015;BME280;45867;52.480;6.056;2023-11-19T12:21:30;100045.75;;;11.41;100.00
60015;BME280;45867;52.480;6.056;2023-11-19T12:23:58;100103.59;;;11.72;100.00
60015;BME280;45867;52.480;6.056;2023-11-19T12:26:33;100096.00;;;11.51;100.00
60015;BME280;45867;52.480;6.056;2023-11-19T12:29:01;100117.88;;;11.43;100.00
60015;BME280;45867;52.480;6.056;2023-11-19T12:31:31;100139.81;;;11.49;100.00
60015;BME280;45867;52.480;6.056;2023-11-19T12:33:58;100156.31;;;11.46;100.00
60015;BME280;45867;52.480;6.056;2023-11-19T12:36:24;100187.13;;;11.61;100.00
60015;BME280;45867;52.480;6.056;2023-11-19T12:38:51;100218.91;;;11.66;100.00
60015;BME280;45867;52.480;6.056;2023-11-19T12:41:17;100239.34;;;11.65;100.00
60015;BME280;45867;52.480;6.056;2023-11-19T12:43:44;100261.28;;;11.71;100.00
60015;BME280;45867;52.480;6.056;2023-11-19T12:46:17;100307.34;;;11.80;100.00
60015;BME280;45867;52.480;6.056;2023-11-19T12:48:44;100352.25;;;11.76;100.00
60015;BME280;45867;52.480;6.056;2023-11-19T12:51:13;100344.31;;;11.52;100.00
60015;BME280;45867;52.480;6.056;2023-11-19T12:53:49;100408.38;;;11.65;100.00
60015;BME280;45867;52.480;6.056;2023-11-19T12:56:15;100440.19;;;11.70;100.00
60015;BME280;45867;52.480;6.056;2023-11-19T12:58:44;100453.91;;;11.53;100.00
60015;BME280;45867;52.480;6.056;2023-11-19T13:01:18;100518.84;;;11.61;100.00
60015;BME280;45867;52.480;6.056;2023-11-19T13:03:47;100518.34;;;11.59;100.00
60015;BME280;45867;52.480;6.056;2023-11-19T13:06:20;100519.84;;;11.41;100.00
60015;BME280;45867;52.480;6.056;2023-11-19T13:08:48;100530.34;;;11.51;100.00
60015;BME280;45867;52.480;6.056;2023-11-19T13:11:30;100547.00;;;11.56;100.00
60015;BME280;45867;52.480;6.056;2023-11-19T13:13:58;100513.25;;;11.33;100.00
60015;BME280;45867;52.480;6.056;2023-11-19T13:16:28;100529.09;;;11.43;100.00
60015;BME280;45867;52.480;6.056;2023-11-19T13:18:58;100534.06;;;11.50;100.00